Time;durP1;ratioP1;P1;durP2;ratioP2;P2;SDS_P1;SDS_P2;PMS_P1;PMS_P2;Temp;Humidity;BMP_temperature;BMP_pressure;BME280_temperature;BME280_humidity;BME280_pressure;Samples;Min_cycle;Max_cycle;Signal;HPM_P1;HPM_P2
2022/11/02 00:01:52;;;;;;;;;;;;;;;20.65;62.84;101329.44;7407476;19;1683;-68
2022/11/02 00:04:20;;;;;;;;;;;;;;;20.65;62.68;101332.13;7408074;19;1857;-68
2022/11/02 00:06:48;;;;;;;;;;;;;;;20.64;63.02;101324.19;7409174;19;1759;-68
2022/11/02 00:09:16;;;;;;;;;;;;;;;20.66;62.57;101325.75;7407280;19;1389;-68
2022/11/02 00:11:47;;;;;;;;;;;;;;;20.63;62.47;101318.00;7408792;19;1682;-68
2022/11/02 00:14:16;;;;;;;;;;;;;;;20.68;62.76;101319.41;7409679;19;1354;-68
2022/11/02 00:16:44;;;;;;;;;;;;;;;20.66;62.66;101327.59;7408046;19;1492;-68
2022/11/02 00:19:13;;;;;;;;;;;;;;;20.63;62.74;101318.00;7409033;19;1689;-68
2022/11/02 00:21:42;;;;;;;;;;;;;;;20.65;62.66;101320.50;7408706;19;1545;-68
2022/11/02 00:24:11;;;;;;;;;;;;;;;20.61;62.50;101302.97;7407209;19;1861;-68
2022/11/02 00:26:40;;;;;;;;;;;;;;;20.62;62.49;101312.75;7407876;19;1486;-68
2022/11/02 00:29:11;;;;;;;;;;;;;;;20.62;62.55;101310.91;7410003;19;1781;-68
2022/11/02 00:31:39;;;;;;;;;;;;;;;20.60;62.39;101315.56;7408584;19;1617;-68
2022/11/02 00:34:07;;;;;;;;;;;;;;;20.62;62.82;101288.56;7407795;19;1350;-68
2022/11/02 00:36:36;;;;;;;;;;;;;;;20.60;62.72;101291.38;7407933;19;1481;-68
2022/11/02 00:39:04;;;;;;;;;;;;;;;20.61;62.63;101313.72;7405149;19;1629;-68
2022/11/02 00:41:32;;;;;;;;;;;;;;;20.59;62.73;101297.75;7404660;19;1609;-68
2022/11/02 00:44:01;;;;;;;;;;;;;;;20.63;62.74;101299.19;7404810;19;1857;-68
2022/11/02 00:46:31;;;;;;;;;;;;;;;20.61;62.57;101303.84;7407108;19;1560;-68
2022/11/02 00:49:00;;;;;;;;;;;;;;;20.57;62.67;101313.13;7408726;19;1434;-68
2022/11/02 00:51:28;;;;;;;;;;;;;;;20.61;62.39;101301.16;7403846;19;1646;-68
2022/11/02 00:53:56;;;;;;;;;;;;;;;20.58;62.79;101293.31;7406120;19;1354;-68
2022/11/02 00:56:25;;;;;;;;;;;;;;;20.58;62.84;101298.69;7404904;19;1718;-68
2022/11/02 00:58:53;;;;;;;;;;;;;;;20.61;62.60;101298.47;7407667;19;1448;-68
2022/11/02 01:01:21;;;;;;;;;;;;;;;20.60;62.37;101288.69;7398357;19;1539;-68
2022/11/02 01:03:52;;;;;;;;;;;;;;;20.59;62.62;101296.88;7403986;19;1865;-68
2022/11/02 01:06:20;;;;;;;;;;;;;;;20.58;62.37;101293.31;7407858;19;1481;-68
2022/11/02 01:08:49;;;;;;;;;;;;;;;20.60;62.47;101301.28;7407356;19;1426;-68
2022/11/02 01:11:18;;;;;;;;;;;;;;;20.57;62.43;101298.81;7407455;19;1082;-68
2022/11/02 01:13:47;;;;;;;;;;;;;;;20.57;62.39;101280.00;7404765;19;1500;-68
2022/11/02 01:16:15;;;;;;;;;;;;;;;20.58;62.50;101289.78;7407946;19;1576;-68
2022/11/02 01:18:44;;;;;;;;;;;;;;;20.00;62.34;101196.28;7405935;19;1650;-68
2022/11/02 01:21:15;;;;;;;;;;;;;;;20.58;62.45;101282.56;7404142;19;1663;-68
2022/11/02 01:23:43;;;;;;;;;;;;;;;20.57;62.37;101286.25;7406807;19;1825;-68
2022/11/02 01:26:12;;;;;;;;;;;;;;;20.56;62.38;101291.75;7406173;19;1560;-68
2022/11/02 01:28:40;;;;;;;;;;;;;;;20.55;62.34;101271.22;7407567;19;1506;-68
2022/11/02 01:31:09;;;;;;;;;;;;;;;20.56;62.61;101300.66;7408398;19;1739;-68
2022/11/02 01:33:38;;;;;;;;;;;;;;;20.54;62.18;101291.03;7406737;19;1622;-68
2022/11/02 01:36:07;;;;;;;;;;;;;;;20.54;62.49;101280.28;7407052;19;1362;-68
2022/11/02 01:38:38;;;;;;;;;;;;;;;20.56;62.36;101272.94;7406528;19;1477;-68
2022/11/02 01:41:06;;;;;;;;;;;;;;;20.57;62.33;101280.88;7402934;19;1026;-68
2022/11/02 01:43:36;;;;;;;;;;;;;;;20.54;62.35;101275.75;7405227;19;1838;-68
2022/11/02 01:46:07;;;;;;;;;;;;;;;20.55;62.61;101265.84;7402274;19;1753;-68
2022/11/02 01:48:37;;;;;;;;;;;;;;;20.53;62.41;101282.13;7407370;19;1571;-68
2022/11/02 01:51:07;;;;;;;;;;;;;;;20.52;62.40;101280.41;7406314;19;1725;-68
2022/11/02 01:53:39;;;;;;;;;;;;;;;20.51;62.66;101267.94;7405963;19;1624;-68
2022/11/02 01:56:09;;;;;;;;;;;;;;;20.53;62.50;101266.00;7404961;19;1707;-68
2022/11/02 01:58:38;;;;;;;;;;;;;;;20.53;62.31;101276.75;7404519;19;1666;-68
2022/11/02 02:01:06;;;;;;;;;;;;;;;20.53;62.14;101282.13;7404926;19;1534;-68
2022/11/02 02:03:36;;;;;;;;;;;;;;;21.05;61.36;101274.88;7405466;19;1845;-68
2022/11/02 02:06:08;;;;;;;;;;;;;;;21.60;59.59;101265.53;7406116;19;1539;-68
2022/11/02 02:08:42;;;;;;;;;;;;;;;21.94;58.98;101271.31;7406355;19;1441;-68
2022/11/02 02:11:25;;;;;;;;;;;;;;;21.76;59.16;101268.50;7405155;19;1433;-68
2022/11/02 02:13:54;;;;;;;;;;;;;;;21.35;60.31;101283.88;7406108;19;1558;-68
2022/11/02 02:16:27;;;;;;;;;;;;;;;21.53;60.39;101288.63;7401019;19;1748;-68
2022/11/02 02:18:58;;;;;;;;;;;;;;;21.74;59.49;101270.47;7405839;19;1322;-69
2022/11/02 02:21:32;;;;;;;;;;;;;;;22.31;58.12;101273.31;7404756;19;1524;-68
2022/11/02 02:24:15;;;;;;;;;;;;;;;22.73;56.82;101278.28;7403884;19;1849;-68
2022/11/02 02:26:59;;;;;;;;;;;;;;;22.20;58.37;101285.06;7400852;19;1694;-68
2022/11/02 02:29:35;;;;;;;;;;;;;;;21.63;59.88;101278.72;7404378;19;1371;-68
2022/11/02 02:32:07;;;;;;;;;;;;;;;21.65;60.04;101274.88;7403267;19;1573;-68
2022/11/02 02:34:37;;;;;;;;;;;;;;;21.91;59.16;101270.78;7405737;19;1503;-68
2022/11/02 02:37:07;;;;;;;;;;;;;;;22.07;58.73;101291.75;7404686;19;1331;-68
2022/11/02 02:39:39;;;;;;;;;;;;;;;21.73;59.78;101273.34;7404816;19;1556;-68
2022/11/02 02:42:13;;;;;;;;;;;;;;;21.47;60.57;101273.88;7401484;19;1457;-68
2022/11/02 02:44:47;;;;;;;;;;;;;;;21.64;59.94;101280.38;7403271;19;1866;-68
2022/11/02 02:47:20;;;;;;;;;;;;;;;22.02;59.23;101276.00;7402413;19;1682;-68
2022/11/02 02:49:51;;;;;;;;;;;;;;;21.98;59.12;101274.59;7404461;19;1606;-69
2022/11/02 02:52:22;;;;;;;;;;;;;;;21.61;59.98;101267.22;7403558;19;1536;-68
2022/11/02 02:54:53;;;;;;;;;;;;;;;21.52;60.49;101270.75;7404932;19;1437;-68
2022/11/02 02:57:23;;;;;;;;;;;;;;;21.80;59.76;101277.97;7402401;19;1789;-68
2022/11/02 02:59:54;;;;;;;;;;;;;;;22.17;58.64;101263.78;7403825;19;1586;-68
2022/11/02 03:02:23;;;;;;;;;;;;;;;21.98;59.26;101269.19;7396637;19;1524;-68
2022/11/02 03:04:52;;;;;;;;;;;;;;;21.66;59.89;101278.41;7401641;19;1862;-68
2022/11/02 03:07:22;;;;;;;;;;;;;;;21.55;60.50;101268.63;7403278;19;1454;-68
2022/11/02 03:09:52;;;;;;;;;;;;;;;21.87;59.35;101262.13;7404362;19;1370;-68
2022/11/02 03:12:24;;;;;;;;;;;;;;;21.98;59.20;101261.13;7400510;19;1598;-68
2022/11/02 03:15:03;;;;;;;;;;;;;;;21.93;59.17;101266.09;7402806;19;1783;-68
2022/11/02 03:17:33;;;;;;;;;;;;;;;21.64;60.18;101257.00;7404052;19;1618;-68
2022/11/02 03:20:06;;;;;;;;;;;;;;;21.60;60.21;101257.44;7402724;19;1469;-68
2022/11/02 03:22:37;;;;;;;;;;;;;;;21.84;59.57;101247.13;7402868;19;1472;-68
2022/11/02 03:25:09;;;;;;;;;;;;;;;22.11;58.90;101259.00;7399072;19;1861;-68
2022/11/02 03:27:42;;;;;;;;;;;;;;;21.86;59.34;101252.34;7403977;19;1606;-68
2022/11/02 03:30:16;;;;;;;;;;;;;;;21.62;60.10;101247.38;7400472;19;1591;-68
2022/11/02 03:32:49;;;;;;;;;;;;;;;21.53;60.31;101256.31;7401304;19;1327;-68
2022/11/02 03:35:20;;;;;;;;;;;;;;;21.94;59.54;101254.31;7399901;19;1631;-68
2022/11/02 03:37:53;;;;;;;;;;;;;;;22.19;58.77;101242.09;7400567;19;1618;-69
2022/11/02 03:40:25;;;;;;;;;;;;;;;22.56;57.81;101230.53;7400708;19;1699;-68
2022/11/02 03:42:54;;;;;;;;;;;;;;;22.18;58.59;101243.09;7403103;19;1577;-68
2022/11/02 03:45:26;;;;;;;;;;;;;;;21.79;59.78;101233.22;7402366;19;1860;-69
2022/11/02 03:47:57;;;;;;;;;;;;;;;21.64;60.07;101246.25;7398113;19;1744;-68
2022/11/02 03:50:26;;;;;;;;;;;;;;;21.72;59.89;101233.94;7401256;19;1519;-68
2022/11/02 03:52:57;;;;;;;;;;;;;;;21.96;59.54;101247.78;7400520;19;1538;-68
2022/11/02 03:55:30;;;;;;;;;;;;;;;22.38;58.44;101230.44;7401756;19;1413;-68
2022/11/02 03:57:59;;;;;;;;;;;;;;;22.52;57.66;101238.09;7401431;19;1947;-69
2022/11/02 04:00:34;;;;;;;;;;;;;;;21.85;59.34;101239.88;7397157;19;1248;-68
2022/11/02 04:03:03;;;;;;;;;;;;;;;21.50;60.33;101240.44;7402046;19;1713;-69
2022/11/02 04:05:32;;;;;;;;;;;;;;;21.32;60.75;101257.22;7400401;19;1870;-68
2022/11/02 04:14:36;;;;;;;;;;;;;;;21.16;61.36;101233.56;7397864;19;1313;-69
2022/11/02 04:16:13;;;;;;;;;;;;;;;21.91;59.51;101243.84;7401386;19;1542;-69
2022/11/02 04:21:22;;;;;;;;;;;;;;;21.87;59.80;101237.06;7411354;19;1589;-69
2022/11/02 04:26:31;;;;;;;;;;;;;;;21.27;61.07;101229.91;7408950;19;1575;-69
2022/11/02 04:29:00;;;;;;;;;;;;;;;21.49;60.50;101234.22;7409096;19;1576;-69
2022/11/02 04:31:30;;;;;;;;;;;;;;;21.69;59.78;101226.16;7408923;19;1351;-68
2022/11/02 04:33:57;;;;;;;;;;;;;;;22.00;58.84;101225.00;7405977;19;1491;-68
2022/11/02 04:36:25;;;;;;;;;;;;;;;22.07;58.75;101217.19;7407687;19;1520;-69
2022/11/02 04:38:51;;;;;;;;;;;;;;;21.65;59.99;101223.72;7408718;19;1402;-69
2022/11/02 04:44:01;;;;;;;;;;;;;;;21.23;61.14;101215.06;7403721;19;1506;-66
2022/11/02 04:46:32;;;;;;;;;;;;;;;21.67;60.15;101212.84;7405260;19;1851;-70
2022/11/02 04:49:01;;;;;;;;;;;;;;;21.88;59.48;101222.59;7341491;19;13755;-67
2022/11/02 04:51:30;;;;;;;;;;;;;;;21.69;59.94;101223.47;7407364;19;1220;-71
2022/11/02 04:53:59;;;;;;;;;;;;;;;21.58;60.57;101208.28;7408471;19;1400;-68
2022/11/02 04:56:28;;;;;;;;;;;;;;;21.54;60.42;101217.66;7407963;19;1308;-68
2022/11/02 04:58:57;;;;;;;;;;;;;;;21.88;59.72;101225.28;7408299;19;1352;-68
2022/11/02 05:01:26;;;;;;;;;;;;;;;22.08;59.35;101216.16;7405140;19;1579;-65
2022/11/02 05:03:58;;;;;;;;;;;;;;;21.98;59.88;101231.50;7407170;19;1543;-68
2022/11/02 05:06:26;;;;;;;;;;;;;;;21.73;60.19;101220.34;7404641;19;1849;-67
2022/11/02 05:08:54;;;;;;;;;;;;;;;21.67;60.43;101228.97;7406546;19;1548;-69
2022/11/02 05:11:23;;;;;;;;;;;;;;;21.63;60.72;101232.94;7404962;19;1680;-65
2022/11/02 05:13:51;;;;;;;;;;;;;;;21.56;61.51;101240.72;7407659;19;1647;-69
2022/11/02 05:16:20;;;;;;;;;;;;;;;21.50;61.53;101232.38;7401573;19;1710;-69
2022/11/02 05:18:48;;;;;;;;;;;;;;;21.38;62.10;101229.78;7407625;19;1540;-69
2022/11/02 05:21:19;;;;;;;;;;;;;;;21.32;62.46;101233.03;7406352;19;1893;-69
2022/11/02 05:23:47;;;;;;;;;;;;;;;21.67;61.69;101237.06;7408691;19;1027;-69
2022/11/02 05:26:15;;;;;;;;;;;;;;;21.92;61.12;101240.16;7403630;19;1860;-70
2022/11/02 05:28:44;;;;;;;;;;;;;;;22.04;61.55;101256.03;7406896;19;1581;-69
2022/11/02 05:31:12;;;;;;;;;;;;;;;21.78;61.94;101253.03;7404604;19;1626;-69
2022/11/02 05:33:40;;;;;;;;;;;;;;;21.64;62.19;101248.09;7406145;19;1313;-72
2022/11/02 05:36:09;;;;;;;;;;;;;;;21.73;62.02;101252.63;7406261;19;1543;-64
2022/11/02 05:38:40;;;;;;;;;;;;;;;22.12;61.25;101257.97;7406304;19;1632;-63
2022/11/02 05:41:08;;;;;;;;;;;;;;;22.18;61.03;101257.44;7406789;19;1498;-69
2022/11/02 05:43:36;;;;;;;;;;;;;;;22.04;61.15;101253.34;7406233;19;1629;-70
2022/11/02 05:46:05;;;;;;;;;;;;;;;21.80;61.23;101259.13;7406177;19;1846;-68
2022/11/02 05:48:34;;;;;;;;;;;;;;;21.79;61.17;101262.84;7406518;19;1062;-67
2022/11/02 05:51:03;;;;;;;;;;;;;;;22.24;60.46;101251.50;7406323;19;1745;-67
2022/11/02 05:53:36;;;;;;;;;;;;;;;22.21;60.73;101267.06;7405538;19;1304;-68
2022/11/02 05:56:08;;;;;;;;;;;;;;;22.05;60.94;101271.19;7404918;19;1682;-72
2022/11/02 05:58:36;;;;;;;;;;;;;;;21.93;61.50;101280.41;7403275;19;1370;-68
2022/11/02 06:01:05;;;;;;;;;;;;;;;21.80;62.12;101277.13;7404129;19;1503;-69
2022/11/02 06:03:34;;;;;;;;;;;;;;;21.87;61.78;101272.91;7401347;19;1493;-75
2022/11/02 06:06:03;;;;;;;;;;;;;;;22.10;61.10;101286.91;7402934;19;1865;-70
2022/11/02 06:08:33;;;;;;;;;;;;;;;21.83;62.32;101272.31;7405182;19;1668;-67
2022/11/02 06:11:08;;;;;;;;;;;;;;;21.73;62.47;101276.88;7405405;19;1218;-71
2022/11/02 06:13:36;;;;;;;;;;;;;;;21.67;62.76;101288.19;7405341;19;1131;-68
2022/11/02 06:16:06;;;;;;;;;;;;;;;21.88;62.47;101277.28;7403786;19;1722;-68
2022/11/02 06:18:35;;;;;;;;;;;;;;;22.19;61.67;101280.66;7405219;19;1787;-70
2022/11/02 06:21:03;;;;;;;;;;;;;;;22.10;61.91;101276.13;7401813;19;1601;-69
2022/11/02 06:23:32;;;;;;;;;;;;;;;21.91;62.54;101260.00;7404836;19;1638;-74
2022/11/02 06:26:01;;;;;;;;;;;;;;;21.85;62.79;101264.13;7402161;19;1863;-74
2022/11/02 06:28:32;;;;;;;;;;;;;;;21.78;62.48;101260.28;7403883;19;1527;-78
2022/11/02 06:31:00;;;;;;;;;;;;;;;21.71;63.24;101257.31;7403725;19;1282;-72
2022/11/02 06:33:28;;;;;;;;;;;;;;;22.06;62.21;101269.31;7402971;19;1302;-69
2022/11/02 06:35:57;;;;;;;;;;;;;;;22.29;61.45;101269.06;7403909;19;1554;-64
2022/11/02 06:38:25;;;;;;;;;;;;;;;22.01;61.63;101266.22;7403088;19;1325;-73
2022/11/02 06:40:57;;;;;;;;;;;;;;;21.91;61.46;101263.53;7402731;19;1347;-74
2022/11/02 06:43:26;;;;;;;;;;;;;;;21.92;62.07;101273.31;7402393;19;1301;-73
2022/11/02 06:45:58;;;;;;;;;;;;;;;21.85;62.55;101256.88;7404269;19;1903;-68
2022/11/02 06:48:27;;;;;;;;;;;;;;;21.74;63.34;101257.00;7403528;19;1350;-66
2022/11/02 06:50:56;;;;;;;;;;;;;;;21.68;63.46;101264.81;7405183;19;1675;-66
2022/11/02 06:53:25;;;;;;;;;;;;;;;21.66;63.55;101267.63;7403227;19;1774;-68
2022/11/02 06:55:54;;;;;;;;;;;;;;;21.65;63.07;101257.88;7404575;19;1442;-72
2022/11/02 06:58:23;;;;;;;;;;;;;;;21.63;63.41;101263.41;7404528;19;1621;-70
2022/11/02 07:00:51;;;;;;;;;;;;;;;21.62;63.52;101250.06;7402176;19;1600;-71
2022/11/02 07:03:22;;;;;;;;;;;;;;;21.65;62.56;101261.41;7402728;19;1345;-67
2022/11/02 07:05:51;;;;;;;;;;;;;;;21.60;63.27;101254.75;7402485;19;1890;-67
2022/11/02 07:08:20;;;;;;;;;;;;;;;21.59;63.22;101255.75;7402618;19;1406;-70
2022/11/02 07:10:48;;;;;;;;;;;;;;;21.60;62.98;101246.69;7403908;19;1543;-69
2022/11/02 07:13:17;;;;;;;;;;;;;;;21.64;63.16;101240.03;7404012;19;1600;-68
2022/11/02 07:15:45;;;;;;;;;;;;;;;21.61;63.57;101233.09;7404868;19;1005;-72
2022/11/02 07:18:14;;;;;;;;;;;;;;;21.64;62.78;101253.47;7403088;19;1761;-69
2022/11/02 07:20:45;;;;;;;;;;;;;;;21.71;63.09;101249.25;7401826;19;1640;-62
2022/11/02 07:23:13;;;;;;;;;;;;;;;21.62;63.52;101256.31;7399230;19;1755;-61
2022/11/02 07:25:41;;;;;;;;;;;;;;;21.59;63.50;101247.69;7398241;19;1868;-60
2022/11/02 07:28:09;;;;;;;;;;;;;;;21.57;63.53;101241.59;7398134;19;1549;-60
2022/11/02 07:30:38;;;;;;;;;;;;;;;21.63;63.65;101246.41;7400295;19;1490;-59
2022/11/02 07:33:06;;;;;;;;;;;;;;;21.74;63.91;101242.72;7401931;19;1628;-63
2022/11/02 07:35:35;;;;;;;;;;;;;;;21.75;64.32;101239.03;7399309;19;1703;-62
2022/11/02 07:38:07;;;;;;;;;;;;;;;21.68;64.13;101244.13;7403814;19;1454;-61
2022/11/02 07:40:37;;;;;;;;;;;;;;;21.68;64.43;101243.28;7401696;19;1261;-63
2022/11/02 07:43:06;;;;;;;;;;;;;;;21.61;63.80;101237.63;7399505;19;1727;-63
2022/11/02 07:45:35;;;;;;;;;;;;;;;21.58;64.20;101235.19;7399296;19;1869;-62
2022/11/02 07:48:03;;;;;;;;;;;;;;;21.58;64.40;101240.59;7399459;19;1476;-65
2022/11/02 07:50:31;;;;;;;;;;;;;;;21.57;64.17;101231.66;7399272;19;1745;-66
2022/11/02 07:53:00;;;;;;;;;;;;;;;21.58;64.40;101238.75;7401227;19;1544;-61
2022/11/02 07:55:32;;;;;;;;;;;;;;;21.59;64.44;101245.00;7406867;19;1501;-60
2022/11/02 07:58:01;;;;;;;;;;;;;;;21.61;64.38;101251.09;7406971;19;1524;-60
2022/11/02 08:00:31;;;;;;;;;;;;;;;21.56;64.69;101242.56;7408156;19;1356;-61
2022/11/02 08:03:00;;;;;;;;;;;;;;;21.57;64.46;101237.06;7404911;19;1446;-63
2022/11/02 08:05:29;;;;;;;;;;;;;;;21.55;64.40;101233.66;7409408;19;1857;-63
2022/11/02 08:07:58;;;;;;;;;;;;;;;21.56;64.50;101242.56;7408318;19;1446;-64
2022/11/02 08:10:27;;;;;;;;;;;;;;;21.35;55.96;101227.38;7407507;19;1605;-63
2022/11/02 08:12:57;;;;;;;;;;;;;;;21.18;59.85;101228.06;7408203;19;1509;-64
2022/11/02 08:15:26;;;;;;;;;;;;;;;21.30;62.68;101228.78;7410377;19;1005;-64
2022/11/02 08:18:04;;;;;;;;;;;;;;;21.33;62.36;101232.03;7408527;19;1577;-64
2022/11/02 08:20:32;;;;;;;;;;;;;;;21.33;61.92;101223.97;7408905;19;1498;-64
2022/11/02 08:23:01;;;;;;;;;;;;;;;21.35;61.87;101226.53;7408396;19;1352;-64
2022/11/02 08:25:29;;;;;;;;;;;;;;;21.35;61.85;101207.69;7408458;19;1860;-64
2022/11/02 08:28:01;;;;;;;;;;;;;;;21.34;61.97;101214.91;7407683;19;1545;-64
2022/11/02 08:30:30;;;;;;;;;;;;;;;21.36;62.01;101220.16;7407185;19;1508;-64
2022/11/02 08:33:03;;;;;;;;;;;;;;;21.32;59.39;101219.56;7407768;19;1537;-64
2022/11/02 08:35:32;;;;;;;;;;;;;;;21.38;61.34;101194.78;7407362;19;1500;-64
2022/11/02 08:38:00;;;;;;;;;;;;;;;21.36;61.44;101204.84;7408392;19;1344;-64
2022/11/02 08:40:29;;;;;;;;;;;;;;;21.40;61.00;101211.66;7408694;19;1469;-64
2022/11/02 08:43:01;;;;;;;;;;;;;;;21.34;61.03;101201.44;7407380;19;1316;-64
2022/11/02 08:45:30;;;;;;;;;;;;;;;21.35;60.76;101197.78;7409048;19;1860;-64
2022/11/02 08:47:58;;;;;;;;;;;;;;;21.35;60.43;101205.84;7408295;19;1443;-64
2022/11/02 08:50:27;;;;;;;;;;;;;;;21.38;60.45;101199.34;7408610;19;1541;-64
2022/11/02 08:52:55;;;;;;;;;;;;;;;21.33;60.40;101191.69;7407192;19;1341;-64
2022/11/02 08:55:23;;;;;;;;;;;;;;;21.32;60.61;101192.66;7407434;19;1535;-64
2022/11/02 08:57:53;;;;;;;;;;;;;;;21.30;60.70;101191.13;7405932;19;1439;-63
2022/11/02 09:00:25;;;;;;;;;;;;;;;21.32;60.30;101189.97;7405766;19;1535;-64
2022/11/02 09:03:00;;;;;;;;;;;;;;;21.32;60.35;101197.22;7405329;19;1409;-64
2022/11/02 09:05:29;;;;;;;;;;;;;;;21.33;60.43;101180.94;7405428;19;1411;-64
2022/11/02 09:07:58;;;;;;;;;;;;;;;21.33;59.89;101180.94;7404611;19;1851;-64
2022/11/02 09:10:26;;;;;;;;;;;;;;;21.31;58.79;101177.53;7405615;19;1303;-64
2022/11/02 09:12:55;;;;;;;;;;;;;;;21.29;59.82;101176.81;7407580;19;1321;-64
2022/11/02 09:15:26;;;;;;;;;;;;;;;21.33;60.00;101177.38;7408937;19;974;-64
2022/11/02 09:17:54;;;;;;;;;;;;;;;21.29;58.04;101160.69;7407573;19;1755;-64
2022/11/02 09:20:23;;;;;;;;;;;;;;;21.35;59.18;101173.56;7407165;19;1586;-64
2022/11/02 09:22:51;;;;;;;;;;;;;;;21.33;58.57;101180.06;7406664;19;1635;-63
2022/11/02 09:25:20;;;;;;;;;;;;;;;21.29;58.41;101157.13;7405026;19;1630;-64
2022/11/02 09:27:53;;;;;;;;;;;;;;;21.33;59.18;101155.84;7402544;19;1846;-64
2022/11/02 09:30:22;;;;;;;;;;;;;;;21.32;58.07;101154.16;7405017;19;1519;-64
2022/11/02 09:32:58;;;;;;;;;;;;;;;21.31;58.29;101153.31;7405113;19;1602;-64
2022/11/02 09:35:27;;;;;;;;;;;;;;;21.36;58.64;101156.44;7405713;19;1561;-64
2022/11/02 09:37:55;;;;;;;;;;;;;;;21.34;58.75;101144.97;7403737;19;1509;-64
2022/11/02 09:40:24;;;;;;;;;;;;;;;21.38;58.18;101145.53;7401893;19;1402;-64
2022/11/02 09:43:00;;;;;;;;;;;;;;;21.36;57.81;101126.81;7405893;19;1539;-64
2022/11/02 09:45:29;;;;;;;;;;;;;;;21.37;57.97;101122.31;7406166;19;1078;-64
2022/11/02 09:48:03;;;;;;;;;;;;;;;21.40;57.81;101132.78;7403613;19;1911;-64
2022/11/02 09:50:36;;;;;;;;;;;;;;;21.37;57.84;101144.69;7404444;19;1583;-64
2022/11/02 09:53:05;;;;;;;;;;;;;;;21.39;57.74;101156.16;7405201;19;1455;-64
2022/11/02 09:55:36;;;;;;;;;;;;;;;21.36;57.41;101145.66;7405816;19;1548;-64
2022/11/02 09:58:08;;;;;;;;;;;;;;;21.38;57.19;101151.75;7404379;19;1637;-64
2022/11/02 10:00:38;;;;;;;;;;;;;;;21.41;57.01;101146.09;7403067;19;1429;-64
2022/11/02 10:03:19;;;;;;;;;;;;;;;21.41;57.52;101151.47;7404223;19;1620;-64
2022/11/02 10:05:49;;;;;;;;;;;;;;;21.36;57.62;101124.13;7403393;19;1542;-64
2022/11/02 10:08:23;;;;;;;;;;;;;;;21.39;57.29;101131.94;7403276;19;1857;-64
2022/11/02 10:10:55;;;;;;;;;;;;;;;21.40;57.16;101130.94;7405404;19;1509;-64
2022/11/02 10:13:27;;;;;;;;;;;;;;;21.40;56.93;101117.47;7403310;19;1511;-64
2022/11/02 10:15:57;;;;;;;;;;;;;;;21.39;56.96;101105.03;7402181;19;1388;-64
2022/11/02 10:18:29;;;;;;;;;;;;;;;21.41;56.97;101112.97;7405704;19;1059;-64
2022/11/02 10:21:00;;;;;;;;;;;;;;;21.40;56.96;101111.25;7406613;19;1758;-64
2022/11/02 10:23:31;;;;;;;;;;;;;;;21.39;56.56;101099.66;7406628;19;1686;-63
2022/11/02 10:26:01;;;;;;;;;;;;;;;21.50;56.47;101103.22;7405725;19;1862;-65
2022/11/02 10:28:31;;;;;;;;;;;;;;;21.61;55.71;101097.69;7405690;19;1426;-61
2022/11/02 10:31:00;;;;;;;;;;;;;;;21.73;55.35;101096.50;7405904;19;1537;-63
2022/11/02 10:33:32;;;;;;;;;;;;;;;21.72;55.82;101094.81;7405247;19;1316;-61
2022/11/02 10:36:17;;;;;;;;;;;;;;;21.75;55.47;101094.53;7405062;19;1415;-62
2022/11/02 10:38:53;;;;;;;;;;;;;;;21.64;56.08;101097.38;7403834;19;1452;-62
2022/11/02 10:41:39;;;;;;;;;;;;;;;21.61;56.14;101095.00;7404990;19;1528;-71
2022/11/02 10:44:16;;;;;;;;;;;;;;;21.66;56.42;101092.69;7405800;19;1537;-74
2022/11/02 10:46:51;;;;;;;;;;;;;;;21.70;56.24;101091.41;7405088;19;1861;-71
2022/11/02 10:49:32;;;;;;;;;;;;;;;21.72;55.77;101092.09;7407013;19;1593;-69
2022/11/02 10:52:01;;;;;;;;;;;;;;;21.80;55.01;101076.06;7405362;19;1442;-68
2022/11/02 10:54:29;;;;;;;;;;;;;;;21.81;55.35;101087.72;7406247;19;1582;-74
2022/11/02 10:56:57;;;;;;;;;;;;;;;21.87;55.80;101087.13;7405704;19;1610;-68
2022/11/02 10:59:26;;;;;;;;;;;;;;;21.82;56.33;101081.31;7406694;19;1061;-73
2022/11/02 11:02:06;;;;;;;;;;;;;;;21.83;56.92;101080.34;7404945;19;1729;-70
2022/11/02 11:04:37;;;;;;;;;;;;;;;21.90;57.10;101080.59;7406254;19;1798;-73
2022/11/02 11:07:06;;;;;;;;;;;;;;;21.84;57.52;101060.47;7404617;19;1863;-69
2022/11/02 11:09:38;;;;;;;;;;;;;;;21.87;57.58;101054.81;7405357;19;1769;-66
2022/11/02 11:12:07;;;;;;;;;;;;;;;21.88;58.05;101061.03;7404869;19;1444;-74
2022/11/02 11:14:39;;;;;;;;;;;;;;;21.84;57.94;101055.97;7405165;19;1475;-73
2022/11/02 11:17:16;;;;;;;;;;;;;;;21.82;58.11;101033.69;7404990;19;1639;-73
2022/11/02 11:19:52;;;;;;;;;;;;;;;21.83;58.38;101048.03;7404473;19;1328;-73
2022/11/02 11:22:26;;;;;;;;;;;;;;;21.79;58.30;101060.94;7404292;19;1158;-68
2022/11/02 11:24:55;;;;;;;;;;;;;;;21.88;58.28;101061.03;7403900;19;1345;-72
2022/11/02 11:27:23;;;;;;;;;;;;;;;21.92;58.14;101044.44;7403373;19;1853;-69
2022/11/02 11:29:56;;;;;;;;;;;;;;;21.94;58.00;101049.69;7412115;19;1435;-72
2022/11/02 11:32:26;;;;;;;;;;;;;;;21.94;57.88;101044.28;7412581;19;1584;-69
2022/11/02 11:35:02;;;;;;;;;;;;;;;21.96;58.08;101045.00;7412883;19;1618;-72
2022/11/02 11:37:31;;;;;;;;;;;;;;;21.92;58.36;101046.28;7412266;19;1533;-77
2022/11/02 11:40:01;;;;;;;;;;;;;;;21.84;58.21;101038.94;7412207;19;1349;-77
2022/11/02 11:42:31;;;;;;;;;;;;;;;21.80;58.28;101032.16;7411869;19;1451;-69
2022/11/02 11:45:00;;;;;;;;;;;;;;;21.80;58.40;101032.16;7411030;19;1581;-69
2022/11/02 11:47:31;;;;;;;;;;;;;;;21.75;58.63;101029.09;7409404;19;1853;-66
2022/11/02 11:50:04;;;;;;;;;;;;;;;21.79;58.52;101019.72;7410788;19;1432;-67
2022/11/02 11:52:33;;;;;;;;;;;;;;;21.77;58.79;101021.72;7409702;19;1578;-73
2022/11/02 11:55:02;;;;;;;;;;;;;;;21.73;58.78;101026.53;7410977;19;1439;-74
2022/11/02 11:57:32;;;;;;;;;;;;;;;21.80;58.86;101016.84;7411034;19;1197;-70
2022/11/02 12:00:03;;;;;;;;;;;;;;;21.86;58.67;101007.34;7410199;19;1770;-72
2022/11/02 12:02:32;;;;;;;;;;;;;;;21.93;58.80;101021.06;7407702;19;1527;-71
2022/11/02 12:05:13;;;;;;;;;;;;;;;21.92;59.10;101014.81;7410362;19;1553;-68
2022/11/02 12:07:58;;;;;;;;;;;;;;;21.89;58.97;101000.81;7407808;19;1866;-67
2022/11/02 12:10:32;;;;;;;;;;;;;;;21.87;59.37;100994.75;7409444;19;1439;-72
2022/11/02 12:13:11;;;;;;;;;;;;;;;21.87;59.29;100983.97;7409715;19;1686;-68
2022/11/02 12:15:53;;;;;;;;;;;;;;;21.83;59.18;100995.03;7409309;19;1631;-70
2022/11/02 12:18:29;;;;;;;;;;;;;;;21.87;58.75;100994.75;7409863;19;1660;-69
2022/11/02 12:21:06;;;;;;;;;;;;;;;21.91;59.19;100990.75;7403731;19;1213;-75
2022/11/02 12:23:49;;;;;;;;;;;;;;;21.93;59.13;100995.00;7410493;19;1325;-73
2022/11/02 12:26:24;;;;;;;;;;;;;;;21.96;59.15;100983.06;7408709;19;1043;-72
2022/11/02 12:28:57;;;;;;;;;;;;;;;21.96;59.35;100994.66;7407270;19;1841;-71
2022/11/02 12:31:31;;;;;;;;;;;;;;;21.92;59.51;100976.28;7409341;19;1341;-72
2022/11/02 12:34:20;;;;;;;;;;;;;;;21.92;59.25;100976.28;7410334;19;1604;-73
2022/11/02 12:36:59;;;;;;;;;;;;;;;21.92;59.65;100971.75;7408968;19;1596;-74
2022/11/02 12:39:33;;;;;;;;;;;;;;;21.93;59.82;100976.13;7406941;19;1546;-70
2022/11/02 12:42:08;;;;;;;;;;;;;;;21.78;60.03;100970.38;7407505;19;1640;-70
2022/11/02 12:44:46;;;;;;;;;;;;;;;21.80;59.85;100967.56;7406679;19;1391;-67
2022/11/02 12:47:24;;;;;;;;;;;;;;;21.82;59.89;100963.72;7404688;19;1857;-69
2022/11/02 12:50:00;;;;;;;;;;;;;;;21.74;58.42;100962.75;7407378;19;1566;-69
2022/11/02 12:52:40;;;;;;;;;;;;;;;21.77;58.76;100960.63;7402985;19;1649;-69
2022/11/02 12:55:14;;;;;;;;;;;;;;;21.79;58.75;100960.50;7400878;19;1134;-70
2022/11/02 12:57:42;;;;;;;;;;;;;;;21.75;58.15;100949.16;7408353;19;1485;-70
2022/11/02 13:00:18;;;;;;;;;;;;;;;21.79;58.21;100955.94;7406087;19;1284;-70
2022/11/02 13:02:53;;;;;;;;;;;;;;;21.87;58.59;100976.75;7404777;19;1402;-74
2022/11/02 13:05:22;;;;;;;;;;;;;;;21.77;58.42;100952.56;7406055;19;1323;-74
2022/11/02 13:07:57;;;;;;;;;;;;;;;21.76;58.54;100952.69;7406712;19;1883;-73
2022/11/02 13:10:28;;;;;;;;;;;;;;;21.69;58.85;100939.00;7407507;19;1303;-74
2022/11/02 13:12:58;;;;;;;;;;;;;;;21.71;58.88;100941.56;7404526;19;1395;-71
2022/11/02 13:15:28;;;;;;;;;;;;;;;21.75;59.02;100943.78;7406581;19;1375;-74
2022/11/02 13:17:58;;;;;;;;;;;;;;;21.77;59.71;100952.56;7407429;19;1563;-73
2022/11/02 13:20:29;;;;;;;;;;;;;;;21.85;59.23;100949.97;7406699;19;1582;-73